sensor_id;sensor_type;location;lat;lon;timestamp;P1;durP1;ratioP1;P2;durP2;ratioP2
57337;SDS011;43173;50.980;18.204;2023-01-20T00:01:30;47.80;;;22.40;;
57337;SDS011;43173;50.980;18.204;2023-01-20T00:03:57;62.20;;;22.90;;
57337;SDS011;43173;50.980;18.204;2023-01-20T00:06:24;56.70;;;25.50;;
57337;SDS011;43173;50.980;18.204;2023-01-20T00:08:56;53.80;;;22.90;;
57337;SDS011;43173;50.980;18.204;2023-01-20T00:11:24;46.90;;;21.40;;
57337;SDS011;43173;50.980;18.204;2023-01-20T00:13:54;49.20;;;22.20;;
57337;SDS011;43173;50.980;18.204;2023-01-20T00:16:21;52.80;;;23.00;;
57337;SDS011;43173;50.980;18.204;2023-01-20T00:18:48;56.80;;;24.10;;
57337;SDS011;43173;50.980;18.204;2023-01-20T00:21:13;51.70;;;23.80;;
57337;SDS011;43173;50.980;18.204;2023-01-20T00:23:41;50.60;;;23.20;;
57337;SDS011;43173;50.980;18.204;2023-01-20T00:26:09;51.30;;;22.70;;
57337;SDS011;43173;50.980;18.204;2023-01-20T00:28:40;51.60;;;22.80;;
57337;SDS011;43173;50.980;18.204;2023-01-20T00:31:13;51.50;;;21.20;;
57337;SDS011;43173;50.980;18.204;2023-01-20T00:33:40;42.20;;;20.30;;
57337;SDS011;43173;50.980;18.204;2023-01-20T00:36:06;48.70;;;21.80;;
57337;SDS011;43173;50.980;18.204;2023-01-20T00:38:33;44.80;;;19.80;;
57337;SDS011;43173;50.980;18.204;2023-01-20T00:40:59;47.20;;;22.00;;
57337;SDS011;43173;50.980;18.204;2023-01-20T00:43:25;52.90;;;23.30;;
57337;SDS011;43173;50.980;18.204;2023-01-20T00:45:51;52.20;;;22.60;;
57337;SDS011;43173;50.980;18.204;2023-01-20T00:48:17;57.50;;;24.30;;
57337;SDS011;43173;50.980;18.204;2023-01-20T00:50:43;53.10;;;24.20;;
57337;SDS011;43173;50.980;18.204;2023-01-20T00:53:09;54.40;;;23.60;;
57337;SDS011;43173;50.980;18.204;2023-01-20T00:55:35;46.90;;;21.30;;
57337;SDS011;43173;50.980;18.204;2023-01-20T00:58:01;49.10;;;22.50;;
57337;SDS011;43173;50.980;18.204;2023-01-20T01:00:27;54.80;;;22.10;;
57337;SDS011;43173;50.980;18.204;2023-01-20T01:02:55;54.40;;;22.90;;
57337;SDS011;43173;50.980;18.204;2023-01-20T01:05:21;57.80;;;24.60;;
57337;SDS011;43173;50.980;18.204;2023-01-20T01:07:47;59.10;;;25.30;;
57337;SDS011;43173;50.980;18.204;2023-01-20T01:10:14;58.20;;;24.40;;
57337;SDS011;43173;50.980;18.204;2023-01-20T01:12:40;50.00;;;22.50;;
57337;SDS011;43173;50.980;18.204;2023-01-20T01:15:06;56.30;;;22.60;;
57337;SDS011;43173;50.980;18.204;2023-01-20T01:17:32;51.30;;;22.40;;
57337;SDS011;43173;50.980;18.204;2023-01-20T01:19:58;54.10;;;23.60;;
57337;SDS011;43173;50.980;18.204;2023-01-20T01:22:24;54.60;;;23.50;;
57337;SDS011;43173;50.980;18.204;2023-01-20T01:24:51;69.90;;;27.90;;
57337;SDS011;43173;50.980;18.204;2023-01-20T01:27:16;67.40;;;26.80;;
57337;SDS011;43173;50.980;18.204;2023-01-20T01:29:42;79.40;;;31.40;;
57337;SDS011;43173;50.980;18.204;2023-01-20T01:32:08;73.30;;;30.40;;
57337;SDS011;43173;50.980;18.204;2023-01-20T01:34:34;77.20;;;29.90;;
57337;SDS011;43173;50.980;18.204;2023-01-20T01:37:00;76.80;;;30.50;;
57337;SDS011;43173;50.980;18.204;2023-01-20T01:39:26;68.40;;;28.80;;
57337;SDS011;43173;50.980;18.204;2023-01-20T01:41:52;72.40;;;27.90;;
57337;SDS011;43173;50.980;18.204;2023-01-20T01:44:17;67.60;;;29.50;;
57337;SDS011;43173;50.980;18.204;2023-01-20T01:46:45;78.50;;;30.40;;
57337;SDS011;43173;50.980;18.204;2023-01-20T01:49:15;87.80;;;34.80;;
57337;SDS011;43173;50.980;18.204;2023-01-20T01:51:46;83.80;;;33.90;;
57337;SDS011;43173;50.980;18.204;2023-01-20T01:54:16;92.40;;;35.60;;
57337;SDS011;43173;50.980;18.204;2023-01-20T01:56:44;89.00;;;35.30;;
57337;SDS011;43173;50.980;18.204;2023-01-20T01:59:11;81.20;;;35.10;;
57337;SDS011;43173;50.980;18.204;2023-01-20T02:01:38;84.70;;;34.40;;
57337;SDS011;43173;50.980;18.204;2023-01-20T02:04:06;81.30;;;32.10;;
57337;SDS011;43173;50.980;18.204;2023-01-20T02:06:37;86.20;;;33.20;;
57337;SDS011;43173;50.980;18.204;2023-01-20T02:09:05;85.80;;;33.00;;
57337;SDS011;43173;50.980;18.204;2023-01-20T02:11:34;80.80;;;32.20;;
57337;SDS011;43173;50.980;18.204;2023-01-20T02:14:03;78.70;;;29.90;;
57337;SDS011;43173;50.980;18.204;2023-01-20T02:24:41;58.10;;;26.00;;
57337;SDS011;43173;50.980;18.204;2023-01-20T02:30:06;60.10;;;26.40;;
57337;SDS011;43173;50.980;18.204;2023-01-20T02:35:41;61.70;;;25.30;;
57337;SDS011;43173;50.980;18.204;2023-01-20T02:38:15;65.10;;;26.40;;
57337;SDS011;43173;50.980;18.204;2023-01-20T02:43:09;55.10;;;23.80;;
57337;SDS011;43173;50.980;18.204;2023-01-20T02:48:42;58.00;;;24.20;;
57337;SDS011;43173;50.980;18.204;2023-01-20T02:53:59;58.60;;;25.70;;
57337;SDS011;43173;50.980;18.204;2023-01-20T02:56:27;61.90;;;26.20;;
57337;SDS011;43173;50.980;18.204;2023-01-20T03:01:28;73.80;;;27.90;;
57337;SDS011;43173;50.980;18.204;2023-01-20T03:03:56;61.50;;;26.50;;
57337;SDS011;43173;50.980;18.204;2023-01-20T03:06:24;81.10;;;33.30;;
57337;SDS011;43173;50.980;18.204;2023-01-20T03:08:53;88.30;;;33.60;;
57337;SDS011;43173;50.980;18.204;2023-01-20T03:11:20;83.20;;;32.20;;
57337;SDS011;43173;50.980;18.204;2023-01-20T03:16:17;98.60;;;38.00;;
57337;SDS011;43173;50.980;18.204;2023-01-20T03:18:45;110.50;;;42.50;;
57337;SDS011;43173;50.980;18.204;2023-01-20T03:21:11;100.80;;;36.40;;
57337;SDS011;43173;50.980;18.204;2023-01-20T03:23:45;124.50;;;42.00;;
57337;SDS011;43173;50.980;18.204;2023-01-20T03:26:13;109.10;;;39.00;;
57337;SDS011;43173;50.980;18.204;2023-01-20T03:28:41;128.40;;;45.40;;
57337;SDS011;43173;50.980;18.204;2023-01-20T03:33:51;132.30;;;46.30;;
57337;SDS011;43173;50.980;18.204;2023-01-20T03:36:19;122.20;;;45.50;;
57337;SDS011;43173;50.980;18.204;2023-01-20T03:38:47;114.30;;;43.80;;
57337;SDS011;43173;50.980;18.204;2023-01-20T03:55:09;85.10;;;34.10;;
57337;SDS011;43173;50.980;18.204;2023-01-20T03:57:43;87.00;;;35.30;;
57337;SDS011;43173;50.980;18.204;2023-01-20T04:00:13;79.40;;;33.20;;
57337;SDS011;43173;50.980;18.204;2023-01-20T04:02:40;80.50;;;32.50;;
57337;SDS011;43173;50.980;18.204;2023-01-20T04:05:07;77.20;;;32.60;;
57337;SDS011;43173;50.980;18.204;2023-01-20T04:07:33;85.10;;;33.70;;
57337;SDS011;43173;50.980;18.204;2023-01-20T04:10:02;89.10;;;35.10;;
57337;SDS011;43173;50.980;18.204;2023-01-20T04:12:31;93.10;;;36.40;;
57337;SDS011;43173;50.980;18.204;2023-01-20T04:14:57;88.20;;;35.60;;
57337;SDS011;43173;50.980;18.204;2023-01-20T04:17:26;93.80;;;35.70;;
57337;SDS011;43173;50.980;18.204;2023-01-20T04:19:53;80.90;;;33.20;;
57337;SDS011;43173;50.980;18.204;2023-01-20T04:22:21;84.80;;;35.40;;
57337;SDS011;43173;50.980;18.204;2023-01-20T04:27:58;81.60;;;33.10;;
57337;SDS011;43173;50.980;18.204;2023-01-20T04:30:24;86.00;;;34.70;;
57337;SDS011;43173;50.980;18.204;2023-01-20T04:32:50;82.80;;;33.30;;
57337;SDS011;43173;50.980;18.204;2023-01-20T04:35:17;89.10;;;32.80;;
57337;SDS011;43173;50.980;18.204;2023-01-20T04:37:44;88.60;;;33.80;;
57337;SDS011;43173;50.980;18.204;2023-01-20T04:40:10;93.30;;;36.00;;
57337;SDS011;43173;50.980;18.204;2023-01-20T04:42:37;118.50;;;40.80;;
57337;SDS011;43173;50.980;18.204;2023-01-20T04:45:03;127.10;;;43.30;;
57337;SDS011;43173;50.980;18.204;2023-01-20T04:47:30;118.40;;;42.30;;
57337;SDS011;43173;50.980;18.204;2023-01-20T04:49:56;110.80;;;40.60;;
57337;SDS011;43173;50.980;18.204;2023-01-20T04:52:22;127.00;;;43.90;;
57337;SDS011;43173;50.980;18.204;2023-01-20T04:54:47;126.30;;;44.70;;
57337;SDS011;43173;50.980;18.204;2023-01-20T04:57:13;117.50;;;40.70;;
57337;SDS011;43173;50.980;18.204;2023-01-20T04:59:39;103.20;;;38.50;;
57337;SDS011;43173;50.980;18.204;2023-01-20T05:02:06;102.60;;;39.90;;
57337;SDS011;43173;50.980;18.204;2023-01-20T05:04:31;104.90;;;39.90;;
57337;SDS011;43173;50.980;18.204;2023-01-20T05:06:57;171.30;;;52.70;;
57337;SDS011;43173;50.980;18.204;2023-01-20T05:09:23;131.40;;;44.70;;
57337;SDS011;43173;50.980;18.204;2023-01-20T05:11:48;124.50;;;41.40;;
57337;SDS011;43173;50.980;18.204;2023-01-20T05:14:14;116.60;;;40.90;;
57337;SDS011;43173;50.980;18.204;2023-01-20T05:16:39;109.70;;;38.90;;
57337;SDS011;43173;50.980;18.204;2023-01-20T05:19:05;137.00;;;44.70;;
57337;SDS011;43173;50.980;18.204;2023-01-20T05:21:31;120.50;;;42.40;;
57337;SDS011;43173;50.980;18.204;2023-01-20T05:23:57;146.40;;;49.30;;
57337;SDS011;43173;50.980;18.204;2023-01-20T05:26:23;147.60;;;50.80;;
57337;SDS011;43173;50.980;18.204;2023-01-20T05:28:50;120.90;;;42.30;;
57337;SDS011;43173;50.980;18.204;2023-01-20T05:31:16;142.50;;;46.60;;
57337;SDS011;43173;50.980;18.204;2023-01-20T05:33:43;143.20;;;47.90;;
57337;SDS011;43173;50.980;18.204;2023-01-20T05:36:09;131.60;;;45.20;;
57337;SDS011;43173;50.980;18.204;2023-01-20T05:38:35;141.50;;;47.50;;
57337;SDS011;43173;50.980;18.204;2023-01-20T05:41:02;137.30;;;48.50;;
57337;SDS011;43173;50.980;18.204;2023-01-20T05:43:29;131.30;;;43.10;;
57337;SDS011;43173;50.980;18.204;2023-01-20T05:45:55;130.40;;;42.30;;
57337;SDS011;43173;50.980;18.204;2023-01-20T05:48:21;139.10;;;47.70;;
57337;SDS011;43173;50.980;18.204;2023-01-20T05:50:47;136.20;;;45.90;;
57337;SDS011;43173;50.980;18.204;2023-01-20T05:53:13;136.00;;;44.70;;
57337;SDS011;43173;50.980;18.204;2023-01-20T05:55:39;137.30;;;45.40;;
57337;SDS011;43173;50.980;18.204;2023-01-20T05:58:05;129.60;;;44.80;;
57337;SDS011;43173;50.980;18.204;2023-01-20T06:00:32;141.70;;;44.80;;
57337;SDS011;43173;50.980;18.204;2023-01-20T06:02:58;137.50;;;44.50;;
57337;SDS011;43173;50.980;18.204;2023-01-20T06:05:23;135.00;;;44.70;;
57337;SDS011;43173;50.980;18.204;2023-01-20T06:07:49;131.70;;;43.60;;
57337;SDS011;43173;50.980;18.204;2023-01-20T06:10:15;158.40;;;49.20;;
57337;SDS011;43173;50.980;18.204;2023-01-20T06:12:41;157.30;;;49.80;;
57337;SDS011;43173;50.980;18.204;2023-01-20T06:15:07;164.50;;;48.90;;
57337;SDS011;43173;50.980;18.204;2023-01-20T06:17:34;154.10;;;50.00;;
57337;SDS011;43173;50.980;18.204;2023-01-20T06:20:00;188.50;;;61.80;;
57337;SDS011;43173;50.980;18.204;2023-01-20T06:22:26;209.60;;;63.50;;
57337;SDS011;43173;50.980;18.204;2023-01-20T06:24:52;183.90;;;60.20;;
57337;SDS011;43173;50.980;18.204;2023-01-20T06:27:18;180.40;;;55.50;;
57337;SDS011;43173;50.980;18.204;2023-01-20T06:29:44;156.40;;;55.90;;
57337;SDS011;43173;50.980;18.204;2023-01-20T06:32:10;169.70;;;53.50;;
57337;SDS011;43173;50.980;18.204;2023-01-20T06:34:35;168.70;;;54.10;;
57337;SDS011;43173;50.980;18.204;2023-01-20T06:37:01;181.70;;;58.40;;
57337;SDS011;43173;50.980;18.204;2023-01-20T06:39:28;197.30;;;63.10;;
57337;SDS011;43173;50.980;18.204;2023-01-20T06:41:57;222.00;;;65.40;;
57337;SDS011;43173;50.980;18.204;2023-01-20T06:44:24;192.40;;;59.20;;
57337;SDS011;43173;50.980;18.204;2023-01-20T06:46:52;201.40;;;63.20;;
57337;SDS011;43173;50.980;18.204;2023-01-20T06:49:17;207.90;;;64.30;;
57337;SDS011;43173;50.980;18.204;2023-01-20T06:51:43;208.90;;;63.10;;
57337;SDS011;43173;50.980;18.204;2023-01-20T06:54:09;236.40;;;73.20;;
57337;SDS011;43173;50.980;18.204;2023-01-20T06:56:34;252.60;;;76.60;;
57337;SDS011;43173;50.980;18.204;2023-01-20T06:59:00;234.00;;;72.90;;
57337;SDS011;43173;50.980;18.204;2023-01-20T07:01:27;246.70;;;75.10;;
57337;SDS011;43173;50.980;18.204;2023-01-20T07:03:54;212.90;;;65.20;;
57337;SDS011;43173;50.980;18.204;2023-01-20T07:08:54;213.80;;;69.00;;
57337;SDS011;43173;50.980;18.204;2023-01-20T07:11:20;185.10;;;59.90;;
57337;SDS011;43173;50.980;18.204;2023-01-20T07:13:45;188.80;;;61.60;;
57337;SDS011;43173;50.980;18.204;2023-01-20T07:16:11;192.70;;;59.70;;
57337;SDS011;43173;50.980;18.204;2023-01-20T07:18:38;185.10;;;61.40;;
57337;SDS011;43173;50.980;18.204;2023-01-20T07:21:04;197.70;;;63.40;;
57337;SDS011;43173;50.980;18.204;2023-01-20T07:23:30;201.60;;;71.00;;
57337;SDS011;43173;50.980;18.204;2023-01-20T07:25:58;202.30;;;65.30;;
57337;SDS011;43173;50.980;18.204;2023-01-20T07:28:25;211.70;;;71.80;;
57337;SDS011;43173;50.980;18.204;2023-01-20T07:30:51;221.10;;;73.40;;
57337;SDS011;43173;50.980;18.204;2023-01-20T07:33:17;205.30;;;71.70;;
57337;SDS011;43173;50.980;18.204;2023-01-20T07:35:43;222.80;;;72.20;;
57337;SDS011;43173;50.980;18.204;2023-01-20T07:38:08;217.60;;;72.20;;
57337;SDS011;43173;50.980;18.204;2023-01-20T07:40:34;202.70;;;70.90;;
57337;SDS011;43173;50.980;18.204;2023-01-20T07:43:03;214.30;;;72.00;;
57337;SDS011;43173;50.980;18.204;2023-01-20T07:45:29;199.70;;;69.50;;
57337;SDS011;43173;50.980;18.204;2023-01-20T07:47:55;207.60;;;68.90;;
57337;SDS011;43173;50.980;18.204;2023-01-20T07:50:21;189.30;;;66.00;;
57337;SDS011;43173;50.980;18.204;2023-01-20T07:52:47;207.40;;;65.70;;
57337;SDS011;43173;50.980;18.204;2023-01-20T07:55:13;204.30;;;67.30;;
57337;SDS011;43173;50.980;18.204;2023-01-20T07:57:39;207.10;;;69.00;;
57337;SDS011;43173;50.980;18.204;2023-01-20T08:00:05;209.80;;;71.40;;
57337;SDS011;43173;50.980;18.204;2023-01-20T08:02:35;228.40;;;79.30;;
57337;SDS011;43173;50.980;18.204;2023-01-20T08:05:02;248.60;;;92.60;;
57337;SDS011;43173;50.980;18.204;2023-01-20T08:07:29;267.20;;;97.10;;
57337;SDS011;43173;50.980;18.204;2023-01-20T08:09:54;273.60;;;97.70;;
57337;SDS011;43173;50.980;18.204;2023-01-20T08:12:20;241.10;;;89.60;;
57337;SDS011;43173;50.980;18.204;2023-01-20T08:14:46;228.00;;;83.70;;
57337;SDS011;43173;50.980;18.204;2023-01-20T08:17:12;228.70;;;83.30;;
57337;SDS011;43173;50.980;18.204;2023-01-20T08:19:37;227.10;;;83.40;;
57337;SDS011;43173;50.980;18.204;2023-01-20T08:22:03;234.40;;;88.20;;
57337;SDS011;43173;50.980;18.204;2023-01-20T08:24:29;230.50;;;86.70;;
57337;SDS011;43173;50.980;18.204;2023-01-20T08:26:55;222.70;;;87.30;;
57337;SDS011;43173;50.980;18.204;2023-01-20T08:29:21;212.50;;;84.40;;
57337;SDS011;43173;50.980;18.204;2023-01-20T08:31:47;215.20;;;80.90;;
57337;SDS011;43173;50.980;18.204;2023-01-20T08:34:12;217.90;;;80.50;;
57337;SDS011;43173;50.980;18.204;2023-01-20T08:36:39;202.70;;;80.50;;
57337;SDS011;43173;50.980;18.204;2023-01-20T08:39:08;191.30;;;67.60;;
57337;SDS011;43173;50.980;18.204;2023-01-20T08:41:36;171.60;;;65.10;;
57337;SDS011;43173;50.980;18.204;2023-01-20T08:44:03;162.40;;;63.50;;
57337;SDS011;43173;50.980;18.204;2023-01-20T08:46:30;167.90;;;64.00;;
57337;SDS011;43173;50.980;18.204;2023-01-20T08:48:56;163.90;;;63.60;;
57337;SDS011;43173;50.980;18.204;2023-01-20T08:51:24;162.70;;;63.60;;
57337;SDS011;43173;50.980;18.204;2023-01-20T08:53:53;157.60;;;61.70;;
57337;SDS011;43173;50.980;18.204;2023-01-20T08:56:20;154.20;;;60.10;;
57337;SDS011;43173;50.980;18.204;2023-01-20T08:58:46;139.10;;;57.60;;
57337;SDS011;43173;50.980;18.204;2023-01-20T09:01:16;139.90;;;59.40;;
57337;SDS011;43173;50.980;18.204;2023-01-20T09:03:43;138.20;;;56.90;;
57337;SDS011;43173;50.980;18.204;2023-01-20T09:06:10;139.00;;;57.10;;
57337;SDS011;43173;50.980;18.204;2023-01-20T09:08:36;148.30;;;59.70;;
57337;SDS011;43173;50.980;18.204;2023-01-20T09:11:06;137.80;;;58.70;;
57337;SDS011;43173;50.980;18.204;2023-01-20T09:13:33;132.90;;;55.70;;
57337;SDS011;43173;50.980;18.204;2023-01-20T09:16:00;145.80;;;61.40;;
57337;SDS011;43173;50.980;18.204;2023-01-20T09:18:26;117.70;;;53.30;;
57337;SDS011;43173;50.980;18.204;2023-01-20T09:20:51;157.90;;;63.40;;
57337;SDS011;43173;50.980;18.204;2023-01-20T09:23:17;147.10;;;57.70;;
57337;SDS011;43173;50.980;18.204;2023-01-20T09:25:43;136.10;;;57.40;;
57337;SDS011;43173;50.980;18.204;2023-01-20T09:28:09;122.00;;;53.70;;
57337;SDS011;43173;50.980;18.204;2023-01-20T09:30:36;105.40;;;46.60;;
57337;SDS011;43173;50.980;18.204;2023-01-20T09:35:27;91.10;;;42.40;;
57337;SDS011;43173;50.980;18.204;2023-01-20T09:37:52;87.10;;;39.10;;
57337;SDS011;43173;50.980;18.204;2023-01-20T09:40:42;75.70;;;35.50;;
57337;SDS011;43173;50.980;18.204;2023-01-20T09:53:09;88.80;;;39.50;;
57337;SDS011;43173;50.980;18.204;2023-01-20T09:56:00;82.00;;;39.20;;
57337;SDS011;43173;50.980;18.204;2023-01-20T09:58:35;75.30;;;32.60;;
57337;SDS011;43173;50.980;18.204;2023-01-20T10:03:36;69.10;;;33.00;;
57337;SDS011;43173;50.980;18.204;2023-01-20T10:06:11;70.00;;;33.90;;
57337;SDS011;43173;50.980;18.204;2023-01-20T10:08:50;68.60;;;33.10;;
57337;SDS011;43173;50.980;18.204;2023-01-20T10:11:19;69.70;;;32.70;;
57337;SDS011;43173;50.980;18.204;2023-01-20T10:13:51;90.70;;;38.90;;
57337;SDS011;43173;50.980;18.204;2023-01-20T10:19:09;83.40;;;36.90;;
57337;SDS011;43173;50.980;18.204;2023-01-20T10:24:33;86.70;;;37.30;;
57337;SDS011;43173;50.980;18.204;2023-01-20T10:27:02;73.10;;;33.80;;
57337;SDS011;43173;50.980;18.204;2023-01-20T10:29:36;107.30;;;44.60;;
57337;SDS011;43173;50.980;18.204;2023-01-20T10:32:25;90.80;;;38.40;;
57337;SDS011;43173;50.980;18.204;2023-01-20T10:34:53;94.30;;;40.00;;
57337;SDS011;43173;50.980;18.204;2023-01-20T10:37:20;85.70;;;36.10;;
57337;SDS011;43173;50.980;18.204;2023-01-20T10:39:48;69.20;;;31.60;;
57337;SDS011;43173;50.980;18.204;2023-01-20T10:42:17;66.00;;;30.80;;
57337;SDS011;43173;50.980;18.204;2023-01-20T10:44:43;61.20;;;29.90;;
57337;SDS011;43173;50.980;18.204;2023-01-20T10:47:14;65.10;;;29.80;;
57337;SDS011;43173;50.980;18.204;2023-01-20T10:55:24;63.50;;;31.30;;
57337;SDS011;43173;50.980;18.204;2023-01-20T10:57:59;63.50;;;31.30;;
57337;SDS011;43173;50.980;18.204;2023-01-20T11:00:30;55.90;;;27.70;;
57337;SDS011;43173;50.980;18.204;2023-01-20T11:02:57;57.70;;;28.30;;
57337;SDS011;43173;50.980;18.204;2023-01-20T11:05:25;52.40;;;26.90;;
57337;SDS011;43173;50.980;18.204;2023-01-20T11:07:52;59.20;;;28.40;;
57337;SDS011;43173;50.980;18.204;2023-01-20T11:10:19;57.30;;;27.70;;
57337;SDS011;43173;50.980;18.204;2023-01-20T11:12:50;52.00;;;25.90;;
57337;SDS011;43173;50.980;18.204;2023-01-20T11:15:21;55.80;;;27.50;;
57337;SDS011;43173;50.980;18.204;2023-01-20T11:31:46;45.90;;;23.70;;
57337;SDS011;43173;50.980;18.204;2023-01-20T11:39:41;50.50;;;25.10;;
57337;SDS011;43173;50.980;18.204;2023-01-20T11:42:13;51.10;;;24.70;;
57337;SDS011;43173;50.980;18.204;2023-01-20T11:44:43;51.10;;;24.90;;
57337;SDS011;43173;50.980;18.204;2023-01-20T11:55:52;45.50;;;23.00;;
57337;SDS011;43173;50.980;18.204;2023-01-20T11:58:30;42.40;;;21.60;;
57337;SDS011;43173;50.980;18.204;2023-01-20T12:01:03;36.20;;;19.80;;
57337;SDS011;43173;50.980;18.204;2023-01-20T12:06:32;38.20;;;18.40;;
57337;SDS011;43173;50.980;18.204;2023-01-20T12:21:36;42.80;;;22.10;;
57337;SDS011;43173;50.980;18.204;2023-01-20T12:24:08;36.60;;;20.20;;
57337;SDS011;43173;50.980;18.204;2023-01-20T12:26:38;42.60;;;22.80;;
57337;SDS011;43173;50.980;18.204;2023-01-20T12:29:10;39.20;;;20.80;;
57337;SDS011;43173;50.980;18.204;2023-01-20T12:31:42;40.80;;;21.00;;
57337;SDS011;43173;50.980;18.204;2023-01-20T12:34:11;38.50;;;21.50;;
57337;SDS011;43173;50.980;18.204;2023-01-20T12:39:34;43.50;;;22.90;;
57337;SDS011;43173;50.980;18.204;2023-01-20T12:56:46;45.70;;;22.70;;
57337;SDS011;43173;50.980;18.204;2023-01-20T13:13:55;49.40;;;26.00;;
57337;SDS011;43173;50.980;18.204;2023-01-20T13:16:12;48.90;;;26.00;;
57337;SDS011;43173;50.980;18.204;2023-01-20T13:21:45;54.00;;;27.00;;
57337;SDS011;43173;50.980;18.204;2023-01-20T13:24:16;54.90;;;27.20;;
57337;SDS011;43173;50.980;18.204;2023-01-20T13:26:47;50.80;;;24.20;;
57337;SDS011;43173;50.980;18.204;2023-01-20T13:29:20;52.90;;;26.40;;
57337;SDS011;43173;50.980;18.204;2023-01-20T13:31:49;58.20;;;28.90;;
57337;SDS011;43173;50.980;18.204;2023-01-20T13:58:17;51.90;;;24.80;;
57337;SDS011;43173;50.980;18.204;2023-01-20T14:00:44;55.60;;;25.50;;
57337;SDS011;43173;50.980;18.204;2023-01-20T14:05:50;60.10;;;30.80;;
57337;SDS011;43173;50.980;18.204;2023-01-20T14:08:18;64.40;;;29.50;;
57337;SDS011;43173;50.980;18.204;2023-01-20T14:10:45;61.00;;;31.40;;
57337;SDS011;43173;50.980;18.204;2023-01-20T14:13:17;66.80;;;34.20;;
57337;SDS011;43173;50.980;18.204;2023-01-20T14:15:46;71.70;;;34.70;;
57337;SDS011;43173;50.980;18.204;2023-01-20T14:18:14;72.70;;;37.20;;
57337;SDS011;43173;50.980;18.204;2023-01-20T14:20:41;80.60;;;39.10;;
57337;SDS011;43173;50.980;18.204;2023-01-20T14:26:06;83.60;;;40.70;;
57337;SDS011;43173;50.980;18.204;2023-01-20T14:36:44;85.30;;;42.60;;
57337;SDS011;43173;50.980;18.204;2023-01-20T14:39:15;88.40;;;42.70;;
57337;SDS011;43173;50.980;18.204;2023-01-20T14:41:45;91.90;;;42.10;;
57337;SDS011;43173;50.980;18.204;2023-01-20T14:44:16;81.90;;;41.20;;
57337;SDS011;43173;50.980;18.204;2023-01-20T14:46:44;88.30;;;40.60;;
57337;SDS011;43173;50.980;18.204;2023-01-20T14:49:13;87.90;;;41.00;;
57337;SDS011;43173;50.980;18.204;2023-01-20T14:51:42;84.30;;;39.50;;
57337;SDS011;43173;50.980;18.204;2023-01-20T14:59:42;78.50;;;36.70;;
57337;SDS011;43173;50.980;18.204;2023-01-20T15:02:13;73.20;;;34.10;;
57337;SDS011;43173;50.980;18.204;2023-01-20T15:04:43;75.90;;;33.60;;
57337;SDS011;43173;50.980;18.204;2023-01-20T15:07:18;70.80;;;33.40;;
57337;SDS011;43173;50.980;18.204;2023-01-20T15:09:53;77.00;;;33.30;;
57337;SDS011;43173;50.980;18.204;2023-01-20T15:15:30;68.10;;;32.00;;
57337;SDS011;43173;50.980;18.204;2023-01-20T15:23:35;64.10;;;29.70;;
57337;SDS011;43173;50.980;18.204;2023-01-20T15:26:07;60.10;;;29.00;;
57337;SDS011;43173;50.980;18.204;2023-01-20T15:31:08;68.40;;;30.60;;
57337;SDS011;43173;50.980;18.204;2023-01-20T15:33:39;64.00;;;30.60;;
57337;SDS011;43173;50.980;18.204;2023-01-20T15:36:12;70.50;;;32.30;;
57337;SDS011;43173;50.980;18.204;2023-01-20T15:38:48;70.20;;;32.60;;
57337;SDS011;43173;50.980;18.204;2023-01-20T15:41:14;66.10;;;30.10;;
57337;SDS011;43173;50.980;18.204;2023-01-20T15:43:40;61.30;;;27.30;;
57337;SDS011;43173;50.980;18.204;2023-01-20T15:46:10;77.10;;;35.50;;
57337;SDS011;43173;50.980;18.204;2023-01-20T15:48:36;70.20;;;32.10;;
57337;SDS011;43173;50.980;18.204;2023-01-20T15:51:02;80.40;;;36.00;;
57337;SDS011;43173;50.980;18.204;2023-01-20T15:53:27;74.70;;;33.80;;
57337;SDS011;43173;50.980;18.204;2023-01-20T15:55:53;87.20;;;39.80;;
57337;SDS011;43173;50.980;18.204;2023-01-20T16:01:02;72.20;;;35.20;;
57337;SDS011;43173;50.980;18.204;2023-01-20T16:03:27;74.50;;;36.40;;
57337;SDS011;43173;50.980;18.204;2023-01-20T16:05:54;81.90;;;37.60;;
57337;SDS011;43173;50.980;18.204;2023-01-20T16:08:20;77.60;;;36.20;;
57337;SDS011;43173;50.980;18.204;2023-01-20T16:10:47;74.00;;;34.80;;
57337;SDS011;43173;50.980;18.204;2023-01-20T16:13:13;74.50;;;34.50;;
57337;SDS011;43173;50.980;18.204;2023-01-20T16:15:40;80.10;;;37.10;;
57337;SDS011;43173;50.980;18.204;2023-01-20T16:18:13;76.90;;;34.50;;
57337;SDS011;43173;50.980;18.204;2023-01-20T16:20:41;73.50;;;35.10;;
57337;SDS011;43173;50.980;18.204;2023-01-20T16:23:08;64.30;;;31.20;;
57337;SDS011;43173;50.980;18.204;2023-01-20T16:25:34;79.20;;;35.60;;
57337;SDS011;43173;50.980;18.204;2023-01-20T16:28:00;65.70;;;30.00;;
57337;SDS011;43173;50.980;18.204;2023-01-20T16:30:25;72.30;;;32.10;;
57337;SDS011;43173;50.980;18.204;2023-01-20T16:32:51;72.00;;;35.20;;
57337;SDS011;43173;50.980;18.204;2023-01-20T16:35:18;80.30;;;36.20;;
57337;SDS011;43173;50.980;18.204;2023-01-20T16:37:45;77.70;;;34.20;;
57337;SDS011;43173;50.980;18.204;2023-01-20T16:40:12;74.40;;;34.70;;
57337;SDS011;43173;50.980;18.204;2023-01-20T16:42:42;75.00;;;34.80;;
57337;SDS011;43173;50.980;18.204;2023-01-20T16:47:53;74.70;;;35.60;;
57337;SDS011;43173;50.980;18.204;2023-01-20T16:50:19;76.60;;;35.40;;
57337;SDS011;43173;50.980;18.204;2023-01-20T16:52:45;80.50;;;35.70;;
57337;SDS011;43173;50.980;18.204;2023-01-20T16:55:11;83.50;;;38.00;;
57337;SDS011;43173;50.980;18.204;2023-01-20T16:57:37;80.80;;;37.20;;
57337;SDS011;43173;50.980;18.204;2023-01-20T17:00:03;80.00;;;37.00;;
57337;SDS011;43173;50.980;18.204;2023-01-20T17:02:30;82.80;;;39.30;;
57337;SDS011;43173;50.980;18.204;2023-01-20T17:04:55;90.30;;;41.30;;
57337;SDS011;43173;50.980;18.204;2023-01-20T17:07:21;90.20;;;40.80;;
57337;SDS011;43173;50.980;18.204;2023-01-20T17:09:47;104.60;;;45.70;;
57337;SDS011;43173;50.980;18.204;2023-01-20T17:12:12;93.20;;;40.70;;
57337;SDS011;43173;50.980;18.204;2023-01-20T17:14:38;95.20;;;40.50;;
57337;SDS011;43173;50.980;18.204;2023-01-20T17:17:04;100.00;;;42.50;;
57337;SDS011;43173;50.980;18.204;2023-01-20T17:19:31;105.00;;;44.50;;
57337;SDS011;43173;50.980;18.204;2023-01-20T17:21:56;96.90;;;41.40;;
57337;SDS011;43173;50.980;18.204;2023-01-20T17:24:22;95.30;;;42.40;;
57337;SDS011;43173;50.980;18.204;2023-01-20T17:26:48;93.90;;;41.80;;
57337;SDS011;43173;50.980;18.204;2023-01-20T17:29:13;125.50;;;48.00;;
57337;SDS011;43173;50.980;18.204;2023-01-20T17:31:39;107.60;;;43.30;;
57337;SDS011;43173;50.980;18.204;2023-01-20T17:34:09;105.70;;;44.00;;
57337;SDS011;43173;50.980;18.204;2023-01-20T17:36:35;104.40;;;40.70;;
57337;SDS011;43173;50.980;18.204;2023-01-20T17:39:03;110.70;;;44.80;;
57337;SDS011;43173;50.980;18.204;2023-01-20T17:41:29;123.10;;;46.60;;